sensor_id;sensor_type;location;lat;lon;timestamp;pressure;altitude;pressure_sealevel;temperature;humidity
15308;BME280;7755;52.208;6.964;2024-02-15T00:00:51;101251.16;;;12.38;100.00
15308;BME280;7755;52.208;6.964;2024-02-15T00:04:56;101251.09;;;12.33;100.00
15308;BME280;7755;52.208;6.964;2024-02-15T00:09:04;101252.25;;;12.37;100.00
15308;BME280;7755;52.208;6.964;2024-02-15T00:13:10;101250.22;;;12.33;100.00
15308;BME280;7755;52.208;6.964;2024-02-15T00:17:15;101250.84;;;12.35;100.00
15308;BME280;7755;52.208;6.964;2024-02-15T00:21:20;101254.84;;;12.32;100.00
15308;BME280;7755;52.208;6.964;2024-02-15T00:25:28;101253.81;;;12.33;100.00
15308;BME280;7755;52.208;6.964;2024-02-15T00:29:32;101248.94;;;12.35;100.00
15308;BME280;7755;52.208;6.964;2024-02-15T00:33:37;101251.41;;;12.37;100.00
15308;BME280;7755;52.208;6.964;2024-02-15T00:37:43;101246.91;;;12.30;100.00
15308;BME280;7755;52.208;6.964;2024-02-15T00:41:51;101253.19;;;12.31;100.00
15308;BME280;7755;52.208;6.964;2024-02-15T00:45:57;101255.69;;;12.33;100.00
15308;BME280;7755;52.208;6.964;2024-02-15T00:50:03;101263.97;;;12.38;100.00
15308;BME280;7755;52.208;6.964;2024-02-15T00:54:08;101263.97;;;12.38;100.00
15308;BME280;7755;52.208;6.964;2024-02-15T00:58:16;101259.59;;;12.37;100.00
15308;BME280;7755;52.208;6.964;2024-02-15T01:02:21;101260.66;;;12.36;100.00
15308;BME280;7755;52.208;6.964;2024-02-15T01:06:26;101256.53;;;12.33;100.00
15308;BME280;7755;52.208;6.964;2024-02-15T01:10:31;101263.66;;;12.34;100.00
15308;BME280;7755;52.208;6.964;2024-02-15T01:14:39;101256.16;;;12.29;100.00
15308;BME280;7755;52.208;6.964;2024-02-15T01:18:45;101259.72;;;12.30;100.00
15308;BME280;7755;52.208;6.964;2024-02-15T01:22:51;101266.00;;;12.30;100.00
15308;BME280;7755;52.208;6.964;2024-02-15T01:26:56;101266.59;;;12.33;100.00
15308;BME280;7755;52.208;6.964;2024-02-15T01:31:04;101260.91;;;12.34;100.00
15308;BME280;7755;52.208;6.964;2024-02-15T01:35:10;101264.47;;;12.35;100.00
15308;BME280;7755;52.208;6.964;2024-02-15T01:39:15;101261.75;;;12.35;100.00
15308;BME280;7755;52.208;6.964;2024-02-15T01:43:20;101268.03;;;12.35;100.00
15308;BME280;7755;52.208;6.964;2024-02-15T01:47:28;101266.38;;;12.34;100.00
15308;BME280;7755;52.208;6.964;2024-02-15T01:51:33;101262.19;;;12.32;100.00
15308;BME280;7755;52.208;6.964;2024-02-15T01:55:39;101262.56;;;12.35;100.00
15308;BME280;7755;52.208;6.964;2024-02-15T01:59:44;101268.84;;;12.36;100.00
15308;BME280;7755;52.208;6.964;2024-02-15T02:03:54;101254.38;;;12.35;100.00
15308;BME280;7755;52.208;6.964;2024-02-15T02:07:59;101248.69;;;12.37;100.00
15308;BME280;7755;52.208;6.964;2024-02-15T02:12:07;101247.03;;;12.36;100.00
15308;BME280;7755;52.208;6.964;2024-02-15T02:16:25;101244.06;;;12.37;100.00
15308;BME280;7755;52.208;6.964;2024-02-15T02:20:33;101242.91;;;12.33;100.00
15308;BME280;7755;52.208;6.964;2024-02-15T02:24:54;101233.66;;;12.34;100.00
15308;BME280;7755;52.208;6.964;2024-02-15T02:29:00;101221.66;;;12.35;100.00
15308;BME280;7755;52.208;6.964;2024-02-15T02:33:10;101220.03;;;12.34;100.00
15308;BME280;7755;52.208;6.964;2024-02-15T02:37:22;101226.28;;;12.35;100.00
15308;BME280;7755;52.208;6.964;2024-02-15T02:41:30;101225.81;;;12.38;100.00
15308;BME280;7755;52.208;6.964;2024-02-15T02:45:35;101223.91;;;12.38;100.00
15308;BME280;7755;52.208;6.964;2024-02-15T02:49:40;101216.22;;;12.35;100.00
15308;BME280;7755;52.208;6.964;2024-02-15T02:53:45;101225.22;;;12.36;100.00
15308;BME280;7755;52.208;6.964;2024-02-15T02:57:53;101232.22;;;12.32;100.00
15308;BME280;7755;52.208;6.964;2024-02-15T03:01:59;101231.13;;;12.33;100.00
15308;BME280;7755;52.208;6.964;2024-02-15T03:06:05;101231.13;;;12.33;100.00
15308;BME280;7755;52.208;6.964;2024-02-15T03:10:11;101224.84;;;12.32;100.00
15308;BME280;7755;52.208;6.964;2024-02-15T03:14:19;101217.03;;;12.36;100.00
15308;BME280;7755;52.208;6.964;2024-02-15T03:18:24;101220.59;;;12.36;100.00
15308;BME280;7755;52.208;6.964;2024-02-15T03:22:29;101217.88;;;12.36;100.00
15308;BME280;7755;52.208;6.964;2024-02-15T03:26:36;101217.03;;;12.36;100.00
15308;BME280;7755;52.208;6.964;2024-02-15T03:30:45;101213.00;;;12.38;100.00
15308;BME280;7755;52.208;6.964;2024-02-15T03:34:50;101227.25;;;12.40;100.00
15308;BME280;7755;52.208;6.964;2024-02-15T03:38:56;101229.34;;;12.38;100.00
15308;BME280;7755;52.208;6.964;2024-02-15T03:43:02;101218.69;;;12.37;100.00
15308;BME280;7755;52.208;6.964;2024-02-15T03:47:11;101218.69;;;12.37;100.00
15308;BME280;7755;52.208;6.964;2024-02-15T03:51:17;101218.22;;;12.40;100.00
15308;BME280;7755;52.208;6.964;2024-02-15T03:55:25;101218.44;;;12.38;100.00
15308;BME280;7755;52.208;6.964;2024-02-15T03:59:30;101217.63;;;12.38;100.00
15308;BME280;7755;52.208;6.964;2024-02-15T04:03:39;101215.38;;;12.35;100.00
15308;BME280;7755;52.208;6.964;2024-02-15T04:07:44;101222.50;;;12.36;100.00
15308;BME280;7755;52.208;6.964;2024-02-15T04:11:50;101217.03;;;12.36;100.00
15308;BME280;7755;52.208;6.964;2024-02-15T04:15:55;101216.47;;;12.34;100.00
15308;BME280;7755;52.208;6.964;2024-02-15T04:20:04;101213.13;;;12.32;100.00
15308;BME280;7755;52.208;6.964;2024-02-15T04:24:09;101219.19;;;12.34;100.00
15308;BME280;7755;52.208;6.964;2024-02-15T04:28:14;101220.84;;;12.35;100.00
15308;BME280;7755;52.208;6.964;2024-02-15T04:32:19;101218.94;;;12.35;100.00
15308;BME280;7755;52.208;6.964;2024-02-15T04:36:26;101219.19;;;12.34;100.00
15308;BME280;7755;52.208;6.964;2024-02-15T04:40:36;101215.63;;;12.33;100.00
15308;BME280;7755;52.208;6.964;2024-02-15T04:44:41;101215.38;;;12.35;100.00
15308;BME280;7755;52.208;6.964;2024-02-15T04:48:46;101203.88;;;12.33;100.00
15308;BME280;7755;52.208;6.964;2024-02-15T04:52:54;101203.66;;;12.34;100.00
15308;BME280;7755;52.208;6.964;2024-02-15T04:56:59;101187.75;;;12.31;100.00
15308;BME280;7755;52.208;6.964;2024-02-15T05:01:29;101188.25;;;12.28;100.00
15308;BME280;7755;52.208;6.964;2024-02-15T05:05:35;101182.81;;;12.28;100.00
15308;BME280;7755;52.208;6.964;2024-02-15T05:09:43;101187.44;;;12.27;100.00
15308;BME280;7755;52.208;6.964;2024-02-15T05:13:48;101177.22;;;12.23;100.00
15308;BME280;7755;52.208;6.964;2024-02-15T05:17:54;101179.63;;;12.19;100.00
15308;BME280;7755;52.208;6.964;2024-02-15T05:21:59;101193.25;;;12.19;100.00
15308;BME280;7755;52.208;6.964;2024-02-15T05:26:11;101192.41;;;12.19;100.00
15308;BME280;7755;52.208;6.964;2024-02-15T05:30:18;101178.44;;;12.15;100.00
15308;BME280;7755;52.208;6.964;2024-02-15T05:34:23;101176.16;;;12.12;100.00
15308;BME280;7755;52.208;6.964;2024-02-15T05:38:31;101168.25;;;12.11;100.00
15308;BME280;7755;52.208;6.964;2024-02-15T05:42:38;101171.22;;;12.09;100.00
15308;BME280;7755;52.208;6.964;2024-02-15T05:46:44;101161.97;;;12.10;100.00
15308;BME280;7755;52.208;6.964;2024-02-15T05:50:49;101161.13;;;12.10;100.00
15308;BME280;7755;52.208;6.964;2024-02-15T05:54:56;101142.31;;;12.08;100.00
15308;BME280;7755;52.208;6.964;2024-02-15T05:59:03;101136.03;;;12.08;100.00
15308;BME280;7755;52.208;6.964;2024-02-15T06:03:12;101130.81;;;12.06;100.00
15308;BME280;7755;52.208;6.964;2024-02-15T06:07:17;101130.81;;;12.06;100.00
15308;BME280;7755;52.208;6.964;2024-02-15T06:11:23;101114.09;;;12.02;100.00
15308;BME280;7755;52.208;6.964;2024-02-15T06:15:30;101116.00;;;12.02;100.00
15308;BME280;7755;52.208;6.964;2024-02-15T06:19:35;101128.31;;;12.05;100.00
15308;BME280;7755;52.208;6.964;2024-02-15T06:23:40;101120.38;;;12.03;100.00
15308;BME280;7755;52.208;6.964;2024-02-15T06:27:45;101126.53;;;11.98;100.00
15308;BME280;7755;52.208;6.964;2024-02-15T06:31:56;101135.56;;;11.99;100.00
15308;BME280;7755;52.208;6.964;2024-02-15T06:36:13;101134.72;;;11.98;100.00
15308;BME280;7755;52.208;6.964;2024-02-15T06:40:30;101150.50;;;11.96;100.00
15308;BME280;7755;52.208;6.964;2024-02-15T06:44:35;101137.44;;;11.98;100.00
15308;BME280;7755;52.208;6.964;2024-02-15T06:48:45;101127.41;;;11.99;100.00
15308;BME280;7755;52.208;6.964;2024-02-15T06:52:50;101124.19;;;12.02;100.00
15308;BME280;7755;52.208;6.964;2024-02-15T06:56:55;101108.91;;;12.01;100.00
15308;BME280;7755;52.208;6.964;2024-02-15T07:01:00;101110.19;;;11.98;100.00
15308;BME280;7755;52.208;6.964;2024-02-15T07:05:08;101086.53;;;11.99;100.00
15308;BME280;7755;52.208;6.964;2024-02-15T07:09:13;101086.53;;;11.99;100.00
15308;BME280;7755;52.208;6.964;2024-02-15T07:13:21;101089.00;;;12.00;100.00
15308;BME280;7755;52.208;6.964;2024-02-15T07:17:29;101098.81;;;12.01;100.00
15308;BME280;7755;52.208;6.964;2024-02-15T07:21:36;101109.72;;;12.01;100.00
15308;BME280;7755;52.208;6.964;2024-02-15T07:25:41;101123.34;;;12.01;100.00
15308;BME280;7755;52.208;6.964;2024-02-15T07:29:51;101134.84;;;12.03;100.00
15308;BME280;7755;52.208;6.964;2024-02-15T07:33:56;101145.72;;;12.03;100.00
15308;BME280;7755;52.208;6.964;2024-02-15T07:38:04;101140.66;;;12.07;100.00
15308;BME280;7755;52.208;6.964;2024-02-15T07:42:09;101141.47;;;12.08;100.00
15308;BME280;7755;52.208;6.964;2024-02-15T07:46:15;101133.53;;;12.06;100.00
15308;BME280;7755;52.208;6.964;2024-02-15T07:50:20;101127.25;;;12.06;100.00
15308;BME280;7755;52.208;6.964;2024-02-15T07:54:27;101127.25;;;12.06;100.00
15308;BME280;7755;52.208;6.964;2024-02-15T07:58:38;101125.44;;;12.11;100.00
15308;BME280;7755;52.208;6.964;2024-02-15T08:02:43;101129.00;;;12.12;100.00
15308;BME280;7755;52.208;6.964;2024-02-15T08:06:49;101131.50;;;12.13;100.00
15308;BME280;7755;52.208;6.964;2024-02-15T08:10:58;101125.69;;;12.10;100.00
15308;BME280;7755;52.208;6.964;2024-02-15T08:15:04;101126.06;;;12.13;100.00
15308;BME280;7755;52.208;6.964;2024-02-15T08:19:14;101128.78;;;12.13;100.00
15308;BME280;7755;52.208;6.964;2024-02-15T08:23:19;101130.44;;;12.14;100.00
15308;BME280;7755;52.208;6.964;2024-02-15T08:27:27;101141.69;;;12.18;100.00
15308;BME280;7755;52.208;6.964;2024-02-15T08:31:34;101150.69;;;12.18;100.00
15308;BME280;7755;52.208;6.964;2024-02-15T08:35:39;101154.22;;;12.19;100.00
15308;BME280;7755;52.208;6.964;2024-02-15T08:39:45;101143.13;;;12.20;100.00
15308;BME280;7755;52.208;6.964;2024-02-15T08:43:53;101134.81;;;12.15;100.00
15308;BME280;7755;52.208;6.964;2024-02-15T08:48:00;101140.28;;;12.15;100.00
15308;BME280;7755;52.208;6.964;2024-02-15T08:52:06;101137.53;;;12.15;100.00
15308;BME280;7755;52.208;6.964;2024-02-15T08:56:12;101136.22;;;12.18;100.00
15308;BME280;7755;52.208;6.964;2024-02-15T09:00:20;101152.38;;;12.19;100.00
15308;BME280;7755;52.208;6.964;2024-02-15T09:04:26;101145.22;;;12.18;100.00
15308;BME280;7755;52.208;6.964;2024-02-15T09:08:31;101147.38;;;12.16;100.00
15308;BME280;7755;52.208;6.964;2024-02-15T09:12:37;101140.84;;;12.17;100.00
15308;BME280;7755;52.208;6.964;2024-02-15T09:16:44;101134.31;;;12.18;100.00
15308;BME280;7755;52.208;6.964;2024-02-15T09:20:49;101128.53;;;12.15;100.00
15308;BME280;7755;52.208;6.964;2024-02-15T09:24:58;101129.38;;;12.15;100.00
15308;BME280;7755;52.208;6.964;2024-02-15T09:29:02;101101.75;;;12.12;100.00
15308;BME280;7755;52.208;6.964;2024-02-15T09:33:12;101098.44;;;12.10;100.00
15308;BME280;7755;52.208;6.964;2024-02-15T09:37:17;101106.03;;;12.08;100.00
15308;BME280;7755;52.208;6.964;2024-02-15T09:41:25;101106.88;;;12.08;100.00
15308;BME280;7755;52.208;6.964;2024-02-15T09:45:30;101094.66;;;12.11;100.00
15308;BME280;7755;52.208;6.964;2024-02-15T09:49:39;101090.03;;;12.11;100.00
15308;BME280;7755;52.208;6.964;2024-02-15T09:53:44;101071.44;;;12.08;100.00
15308;BME280;7755;52.208;6.964;2024-02-15T09:57:51;101057.44;;;12.05;100.00
15308;BME280;7755;52.208;6.964;2024-02-15T10:01:58;101071.56;;;12.01;100.00
15308;BME280;7755;52.208;6.964;2024-02-15T10:06:06;101050.84;;;12.00;100.00
15308;BME280;7755;52.208;6.964;2024-02-15T10:10:15;101034.50;;;12.00;100.00
15308;BME280;7755;52.208;6.964;2024-02-15T10:14:22;101090.28;;;11.98;100.00
15308;BME280;7755;52.208;6.964;2024-02-15T10:18:27;101109.16;;;11.99;100.00
15308;BME280;7755;52.208;6.964;2024-02-15T10:22:35;101121.78;;;12.06;100.00
15308;BME280;7755;52.208;6.964;2024-02-15T10:26:40;101100.59;;;12.08;100.00
15308;BME280;7755;52.208;6.964;2024-02-15T10:30:45;101112.53;;;12.18;100.00
15308;BME280;7755;52.208;6.964;2024-02-15T10:34:52;101099.38;;;12.15;100.00
15308;BME280;7755;52.208;6.964;2024-02-15T10:39:10;101104.69;;;12.22;100.00
15308;BME280;7755;52.208;6.964;2024-02-15T10:43:20;101104.06;;;12.32;100.00
15308;BME280;7755;52.208;6.964;2024-02-15T10:47:26;101105.00;;;12.37;100.00
15308;BME280;7755;52.208;6.964;2024-02-15T10:51:32;101111.53;;;12.36;100.00
15308;BME280;7755;52.208;6.964;2024-02-15T10:55:46;101088.06;;;12.35;100.00
15308;BME280;7755;52.208;6.964;2024-02-15T10:59:55;101092.44;;;12.36;100.00
15308;BME280;7755;52.208;6.964;2024-02-15T11:04:07;101095.75;;;12.38;100.00
15308;BME280;7755;52.208;6.964;2024-02-15T11:08:12;101084.13;;;12.43;100.00
15308;BME280;7755;52.208;6.964;2024-02-15T11:12:21;101077.34;;;12.45;100.00
15308;BME280;7755;52.208;6.964;2024-02-15T11:16:41;101080.75;;;12.52;100.00
15308;BME280;7755;52.208;6.964;2024-02-15T11:20:46;101072.66;;;12.57;100.00
15308;BME280;7755;52.208;6.964;2024-02-15T11:24:55;101080.38;;;12.61;100.00
15308;BME280;7755;52.208;6.964;2024-02-15T11:29:06;101074.97;;;12.66;100.00
15308;BME280;7755;52.208;6.964;2024-02-15T11:33:24;101073.59;;;12.63;100.00
15308;BME280;7755;52.208;6.964;2024-02-15T11:37:53;101083.78;;;12.68;100.00
15308;BME280;7755;52.208;6.964;2024-02-15T11:42:25;101077.25;;;12.69;100.00
15308;BME280;7755;52.208;6.964;2024-02-15T11:46:33;101073.19;;;12.71;100.00
15308;BME280;7755;52.208;6.964;2024-02-15T11:50:39;101063.69;;;12.74;100.00
15308;BME280;7755;52.208;6.964;2024-02-15T11:54:44;101062.94;;;12.78;100.00
15308;BME280;7755;52.208;6.964;2024-02-15T11:59:01;101055.41;;;12.85;100.00
15308;BME280;7755;52.208;6.964;2024-02-15T12:03:13;101050.63;;;12.93;100.00
15308;BME280;7755;52.208;6.964;2024-02-15T12:07:32;101048.81;;;12.98;100.00
15308;BME280;7755;52.208;6.964;2024-02-15T12:11:57;101047.00;;;13.04;100.00
15308;BME280;7755;52.208;6.964;2024-02-15T12:16:15;101050.91;;;13.08;100.00
15308;BME280;7755;52.208;6.964;2024-02-15T12:20:35;101048.56;;;13.17;100.00
15308;BME280;7755;52.208;6.964;2024-02-15T12:24:41;101043.53;;;13.25;100.00
15308;BME280;7755;52.208;6.964;2024-02-15T12:28:50;101038.47;;;13.34;100.00
15308;BME280;7755;52.208;6.964;2024-02-15T12:33:09;101038.88;;;13.43;100.00
15308;BME280;7755;52.208;6.964;2024-02-15T12:37:20;101042.53;;;13.48;100.00
15308;BME280;7755;52.208;6.964;2024-02-15T12:41:25;101027.25;;;13.52;100.00
15308;BME280;7755;52.208;6.964;2024-02-15T12:45:35;101033.00;;;13.51;100.00
15308;BME280;7755;52.208;6.964;2024-02-15T12:49:41;101017.50;;;13.56;100.00
15308;BME280;7755;52.208;6.964;2024-02-15T12:53:49;101026.53;;;13.57;100.00
15308;BME280;7755;52.208;6.964;2024-02-15T12:57:54;101026.53;;;13.57;100.00
15308;BME280;7755;52.208;6.964;2024-02-15T13:01:59;101017.06;;;13.64;100.00
15308;BME280;7755;52.208;6.964;2024-02-15T13:06:06;101020.16;;;13.73;100.00
15308;BME280;7755;52.208;6.964;2024-02-15T13:10:14;101012.03;;;13.78;100.00
15308;BME280;7755;52.208;6.964;2024-02-15T13:14:19;101007.22;;;13.85;100.00
15308;BME280;7755;52.208;6.964;2024-02-15T13:18:24;101016.59;;;13.94;100.00
15308;BME280;7755;52.208;6.964;2024-02-15T13:22:31;101003.75;;;13.95;100.00
15308;BME280;7755;52.208;6.964;2024-02-15T13:26:40;101003.53;;;13.97;100.00
15308;BME280;7755;52.208;6.964;2024-02-15T13:30:45;100986.03;;;13.98;100.00
15308;BME280;7755;52.208;6.964;2024-02-15T13:34:51;100987.16;;;14.02;100.00
15308;BME280;7755;52.208;6.964;2024-02-15T13:38:58;100983.66;;;14.06;100.00
15308;BME280;7755;52.208;6.964;2024-02-15T13:43:09;100970.13;;;14.16;100.00
15308;BME280;7755;52.208;6.964;2024-02-15T13:47:14;100963.84;;;14.21;100.00
15308;BME280;7755;52.208;6.964;2024-02-15T13:51:19;100959.25;;;14.27;100.00
15308;BME280;7755;52.208;6.964;2024-02-15T13:55:25;100954.88;;;14.26;100.00
15308;BME280;7755;52.208;6.964;2024-02-15T13:59:35;100953.78;;;14.27;100.00
15308;BME280;7755;52.208;6.964;2024-02-15T14:03:40;100957.41;;;14.32;100.00
15308;BME280;7755;52.208;6.964;2024-02-15T14:07:48;100953.63;;;14.38;100.00
15308;BME280;7755;52.208;6.964;2024-02-15T14:11:54;100947.63;;;14.41;100.00
15308;BME280;7755;52.208;6.964;2024-02-15T14:16:03;100941.94;;;14.43;100.00
15308;BME280;7755;52.208;6.964;2024-02-15T14:20:11;100942.47;;;14.45;100.00
15308;BME280;7755;52.208;6.964;2024-02-15T14:24:17;100937.59;;;14.47;100.00
15308;BME280;7755;52.208;6.964;2024-02-15T14:28:25;100938.41;;;14.47;100.00
15308;BME280;7755;52.208;6.964;2024-02-15T14:32:32;100938.16;;;14.49;100.00
15308;BME280;7755;52.208;6.964;2024-02-15T14:36:50;100926.97;;;14.51;100.00
15308;BME280;7755;52.208;6.964;2024-02-15T14:40:55;100914.09;;;14.51;100.00
15308;BME280;7755;52.208;6.964;2024-02-15T14:45:02;100914.38;;;14.50;100.00
15308;BME280;7755;52.208;6.964;2024-02-15T14:49:10;100912.47;;;14.50;100.00
15308;BME280;7755;52.208;6.964;2024-02-15T14:53:16;100912.19;;;14.52;100.00
15308;BME280;7755;52.208;6.964;2024-02-15T14:57:21;100913.31;;;14.56;100.00
15308;BME280;7755;52.208;6.964;2024-02-15T15:01:29;100903.19;;;14.56;100.00
15308;BME280;7755;52.208;6.964;2024-02-15T15:05:39;100890.91;;;14.59;100.00
15308;BME280;7755;52.208;6.964;2024-02-15T15:09:56;100895.84;;;14.62;100.00
15308;BME280;7755;52.208;6.964;2024-02-15T15:14:17;100890.94;;;14.64;100.00
15308;BME280;7755;52.208;6.964;2024-02-15T15:18:22;100886.03;;;14.66;100.00
15308;BME280;7755;52.208;6.964;2024-02-15T15:22:30;100888.81;;;14.71;100.00
15308;BME280;7755;52.208;6.964;2024-02-15T15:26:36;100898.41;;;14.73;100.00
15308;BME280;7755;52.208;6.964;2024-02-15T15:30:41;100896.75;;;14.72;100.00
15308;BME280;7755;52.208;6.964;2024-02-15T15:34:50;100897.31;;;14.74;100.00
15308;BME280;7755;52.208;6.964;2024-02-15T15:38:58;100888.81;;;14.76;100.00
15308;BME280;7755;52.208;6.964;2024-02-15T15:43:10;100877.03;;;14.75;100.00
15308;BME280;7755;52.208;6.964;2024-02-15T15:47:16;100875.94;;;14.71;100.00
15308;BME280;7755;52.208;6.964;2024-02-15T15:51:20;100878.97;;;14.70;100.00
15308;BME280;7755;52.208;6.964;2024-02-15T15:55:28;100886.31;;;14.64;100.00
15308;BME280;7755;52.208;6.964;2024-02-15T15:59:33;100891.47;;;14.61;100.00
15308;BME280;7755;52.208;6.964;2024-02-15T16:03:38;100884.88;;;14.57;100.00
15308;BME280;7755;52.208;6.964;2024-02-15T16:07:44;100882.09;;;14.52;100.00
15308;BME280;7755;52.208;6.964;2024-02-15T16:11:52;100874.66;;;14.47;100.00
15308;BME280;7755;52.208;6.964;2024-02-15T16:15:58;100869.38;;;14.40;100.00
15308;BME280;7755;52.208;6.964;2024-02-15T16:20:07;100870.69;;;14.33;100.00
15308;BME280;7755;52.208;6.964;2024-02-15T16:24:15;100879.69;;;14.28;100.00
15308;BME280;7755;52.208;6.964;2024-02-15T16:28:23;100873.09;;;14.24;100.00
15308;BME280;7755;52.208;6.964;2024-02-15T16:32:28;100866.50;;;14.20;100.00
15308;BME280;7755;52.208;6.964;2024-02-15T16:36:33;100873.81;;;14.14;100.00
15308;BME280;7755;52.208;6.964;2024-02-15T16:40:38;100863.69;;;14.10;100.00
15308;BME280;7755;52.208;6.964;2024-02-15T16:44:46;100858.66;;;14.02;100.00
15308;BME280;7755;52.208;6.964;2024-02-15T16:48:51;100853.19;;;13.97;100.00
15308;BME280;7755;52.208;6.964;2024-02-15T16:52:58;100851.97;;;13.87;100.00
15308;BME280;7755;52.208;6.964;2024-02-15T16:57:03;100843.69;;;13.77;100.00
15308;BME280;7755;52.208;6.964;2024-02-15T17:01:19;100851.28;;;13.70;100.00
15308;BME280;7755;52.208;6.964;2024-02-15T17:05:24;100846.00;;;13.63;100.00
15308;BME280;7755;52.208;6.964;2024-02-15T17:09:30;100837.19;;;13.56;100.00
15308;BME280;7755;52.208;6.964;2024-02-15T17:13:36;100835.22;;;13.52;100.00
15308;BME280;7755;52.208;6.964;2024-02-15T17:17:47;100841.72;;;13.46;100.00
15308;BME280;7755;52.208;6.964;2024-02-15T17:21:52;100832.69;;;13.45;100.00
15308;BME280;7755;52.208;6.964;2024-02-15T17:25:57;100828.59;;;13.43;100.00
15308;BME280;7755;52.208;6.964;2024-02-15T17:30:03;100832.63;;;13.40;100.00
15308;BME280;7755;52.208;6.964;2024-02-15T17:34:13;100827.16;;;13.40;100.00
15308;BME280;7755;52.208;6.964;2024-02-15T17:38:18;100821.72;;;13.40;100.00
15308;BME280;7755;52.208;6.964;2024-02-15T17:42:23;100828.78;;;13.36;100.00
15308;BME280;7755;52.208;6.964;2024-02-15T17:46:29;100824.41;;;13.35;100.00
15308;BME280;7755;52.208;6.964;2024-02-15T17:50:37;100821.09;;;13.33;100.00
15308;BME280;7755;52.208;6.964;2024-02-15T17:54:42;100819.97;;;13.29;100.00
15308;BME280;7755;52.208;6.964;2024-02-15T17:58:48;100824.28;;;13.25;100.00
15308;BME280;7755;52.208;6.964;2024-02-15T18:02:53;100823.72;;;13.23;100.00
15308;BME280;7755;52.208;6.964;2024-02-15T18:07:02;100819.56;;;13.20;100.00
15308;BME280;7755;52.208;6.964;2024-02-15T18:11:07;100826.91;;;13.20;100.00
15308;BME280;7755;52.208;6.964;2024-02-15T18:15:13;100818.16;;;13.18;100.00
15308;BME280;7755;52.208;6.964;2024-02-15T18:19:20;100806.94;;;13.14;100.00
15308;BME280;7755;52.208;6.964;2024-02-15T18:23:28;100806.34;;;13.12;100.00
15308;BME280;7755;52.208;6.964;2024-02-15T18:27:33;100816.44;;;13.11;100.00
15308;BME280;7755;52.208;6.964;2024-02-15T18:31:39;100797.84;;;13.08;100.00
15308;BME280;7755;52.208;6.964;2024-02-15T18:35:44;100792.06;;;13.05;100.00
15308;BME280;7755;52.208;6.964;2024-02-15T18:39:51;100796.13;;;13.02;100.00
15308;BME280;7755;52.208;6.964;2024-02-15T18:43:58;100791.75;;;13.01;100.00
15308;BME280;7755;52.208;6.964;2024-02-15T18:48:03;100786.31;;;13.01;100.00
15308;BME280;7755;52.208;6.964;2024-02-15T18:52:11;100788.22;;;13.01;100.00
15308;BME280;7755;52.208;6.964;2024-02-15T18:56:19;100782.75;;;13.01;100.00
15308;BME280;7755;52.208;6.964;2024-02-15T19:00:25;100788.22;;;13.01;100.00
15308;BME280;7755;52.208;6.964;2024-02-15T19:04:40;100784.63;;;13.00;100.00
15308;BME280;7755;52.208;6.964;2024-02-15T19:08:45;100794.72;;;13.00;100.00
15308;BME280;7755;52.208;6.964;2024-02-15T19:12:54;100789.25;;;13.00;100.00
15308;BME280;7755;52.208;6.964;2024-02-15T19:16:59;100787.63;;;12.99;100.00
15308;BME280;7755;52.208;6.964;2024-02-15T19:21:04;100785.97;;;12.98;100.00
15308;BME280;7755;52.208;6.964;2024-02-15T19:25:10;100782.09;;;12.94;100.00
15308;BME280;7755;52.208;6.964;2024-02-15T19:29:23;100775.25;;;12.91;100.00
15308;BME280;7755;52.208;6.964;2024-02-15T19:33:28;100776.00;;;12.87;100.00
15308;BME280;7755;52.208;6.964;2024-02-15T19:37:53;100784.72;;;12.83;100.00
15308;BME280;7755;52.208;6.964;2024-02-15T19:41:58;100778.91;;;12.80;100.00
15308;BME280;7755;52.208;6.964;2024-02-15T19:46:06;100781.91;;;12.78;100.00
15308;BME280;7755;52.208;6.964;2024-02-15T19:50:12;100769.59;;;12.76;100.00
15308;BME280;7755;52.208;6.964;2024-02-15T19:54:24;100754.56;;;12.73;100.00
15308;BME280;7755;52.208;6.964;2024-02-15T19:58:29;100749.09;;;12.73;100.00
15308;BME280;7755;52.208;6.964;2024-02-15T20:02:36;100750.19;;;12.72;100.00
15308;BME280;7755;52.208;6.964;2024-02-15T20:06:42;100742.81;;;12.73;100.00
15308;BME280;7755;52.208;6.964;2024-02-15T20:10:47;100744.72;;;12.72;100.00
15308;BME280;7755;52.208;6.964;2024-02-15T20:14:56;100749.34;;;12.72;100.00
15308;BME280;7755;52.208;6.964;2024-02-15T20:19:04;100749.88;;;12.69;100.00
15308;BME280;7755;52.208;6.964;2024-02-15T20:23:08;100736.50;;;12.67;100.00
15308;BME280;7755;52.208;6.964;2024-02-15T20:27:13;100740.28;;;12.66;100.00
15308;BME280;7755;52.208;6.964;2024-02-15T20:31:23;100734.25;;;12.64;100.00
15308;BME280;7755;52.208;6.964;2024-02-15T20:35:31;100729.31;;;12.61;100.00
15308;BME280;7755;52.208;6.964;2024-02-15T20:39:36;100728.50;;;12.61;100.00
15308;BME280;7755;52.208;6.964;2024-02-15T20:43:41;100730.16;;;12.62;100.00
15308;BME280;7755;52.208;6.964;2024-02-15T20:47:46;100736.44;;;12.62;100.00
15308;BME280;7755;52.208;6.964;2024-02-15T20:51:54;100724.69;;;12.62;100.00
15308;BME280;7755;52.208;6.964;2024-02-15T20:55:59;100727.41;;;12.62;100.00
15308;BME280;7755;52.208;6.964;2024-02-15T21:00:05;100714.28;;;12.58;100.00
15308;BME280;7755;52.208;6.964;2024-02-15T21:04:16;100720.00;;;12.57;100.00
15308;BME280;7755;52.208;6.964;2024-02-15T21:08:24;100706.06;;;12.53;100.00
15308;BME280;7755;52.208;6.964;2024-02-15T21:12:29;100705.19;;;12.53;100.00
15308;BME280;7755;52.208;6.964;2024-02-15T21:16:34;100689.34;;;12.50;100.00
15308;BME280;7755;52.208;6.964;2024-02-15T21:20:39;100696.38;;;12.46;100.00
15308;BME280;7755;52.208;6.964;2024-02-15T21:24:47;100701.53;;;12.42;100.00
15308;BME280;7755;52.208;6.964;2024-02-15T21:28:52;100684.00;;;12.38;100.00
15308;BME280;7755;52.208;6.964;2024-02-15T21:32:57;100691.28;;;12.33;100.00